sensor_id;sensor_type;location;lat;lon;timestamp;temperature;humidity
5899;DHT22;2975;50.956;6.962;2023-06-24T00:00:56;18.70;99.90
5899;DHT22;2975;50.956;6.962;2023-06-24T00:03:21;18.60;99.90
5899;DHT22;2975;50.956;6.962;2023-06-24T00:05:47;18.60;99.90
5899;DHT22;2975;50.956;6.962;2023-06-24T00:08:15;18.60;99.90
5899;DHT22;2975;50.956;6.962;2023-06-24T00:10:45;18.50;99.90
5899;DHT22;2975;50.956;6.962;2023-06-24T00:13:12;18.50;99.90
5899;DHT22;2975;50.956;6.962;2023-06-24T00:15:37;18.50;99.90
5899;DHT22;2975;50.956;6.962;2023-06-24T00:18:11;18.50;99.90
5899;DHT22;2975;50.956;6.962;2023-06-24T00:20:37;18.40;99.90
5899;DHT22;2975;50.956;6.962;2023-06-24T00:23:02;18.40;99.90
5899;DHT22;2975;50.956;6.962;2023-06-24T00:25:29;18.40;99.90
5899;DHT22;2975;50.956;6.962;2023-06-24T00:27:55;18.40;99.90
5899;DHT22;2975;50.956;6.962;2023-06-24T00:30:20;18.40;99.90
5899;DHT22;2975;50.956;6.962;2023-06-24T00:32:46;18.40;99.90
5899;DHT22;2975;50.956;6.962;2023-06-24T00:35:11;18.40;99.90
5899;DHT22;2975;50.956;6.962;2023-06-24T00:37:40;18.30;99.90
5899;DHT22;2975;50.956;6.962;2023-06-24T00:40:10;18.30;99.90
5899;DHT22;2975;50.956;6.962;2023-06-24T00:42:37;18.30;99.90
5899;DHT22;2975;50.956;6.962;2023-06-24T00:45:03;18.30;99.90
5899;DHT22;2975;50.956;6.962;2023-06-24T00:47:31;18.30;99.90
5899;DHT22;2975;50.956;6.962;2023-06-24T00:49:57;18.40;99.90
5899;DHT22;2975;50.956;6.962;2023-06-24T00:52:23;18.40;99.90
5899;DHT22;2975;50.956;6.962;2023-06-24T00:54:49;18.40;99.90
5899;DHT22;2975;50.956;6.962;2023-06-24T00:57:15;18.40;99.90
5899;DHT22;2975;50.956;6.962;2023-06-24T00:59:44;18.50;99.90
5899;DHT22;2975;50.956;6.962;2023-06-24T01:02:10;18.50;99.90
5899;DHT22;2975;50.956;6.962;2023-06-24T01:04:37;18.60;99.90
5899;DHT22;2975;50.956;6.962;2023-06-24T01:07:04;18.60;99.90
5899;DHT22;2975;50.956;6.962;2023-06-24T01:09:30;18.60;99.90
5899;DHT22;2975;50.956;6.962;2023-06-24T01:11:56;18.50;99.90
5899;DHT22;2975;50.956;6.962;2023-06-24T01:14:22;18.50;99.90
5899;DHT22;2975;50.956;6.962;2023-06-24T01:17:22;18.40;99.90
5899;DHT22;2975;50.956;6.962;2023-06-24T01:28:41;18.40;99.90
5899;DHT22;2975;50.956;6.962;2023-06-24T01:36:38;18.10;99.90
5899;DHT22;2975;50.956;6.962;2023-06-24T01:39:08;18.00;99.90
5899;DHT22;2975;50.956;6.962;2023-06-24T01:41:40;17.90;99.90
5899;DHT22;2975;50.956;6.962;2023-06-24T01:44:09;17.90;99.90
5899;DHT22;2975;50.956;6.962;2023-06-24T01:46:36;17.90;99.90
5899;DHT22;2975;50.956;6.962;2023-06-24T01:49:04;18.00;99.90
5899;DHT22;2975;50.956;6.962;2023-06-24T01:51:34;18.00;99.90
5899;DHT22;2975;50.956;6.962;2023-06-24T01:54:04;18.10;99.90
5899;DHT22;2975;50.956;6.962;2023-06-24T01:56:32;18.10;99.90
5899;DHT22;2975;50.956;6.962;2023-06-24T01:59:02;18.20;99.90
5899;DHT22;2975;50.956;6.962;2023-06-24T02:01:32;18.20;99.90
5899;DHT22;2975;50.956;6.962;2023-06-24T02:03:59;18.10;99.90
5899;DHT22;2975;50.956;6.962;2023-06-24T02:06:26;18.10;99.90
5899;DHT22;2975;50.956;6.962;2023-06-24T02:08:53;18.10;99.90
5899;DHT22;2975;50.956;6.962;2023-06-24T02:11:22;18.00;99.90
5899;DHT22;2975;50.956;6.962;2023-06-24T02:13:51;18.00;99.90
5899;DHT22;2975;50.956;6.962;2023-06-24T02:16:20;18.00;99.90
5899;DHT22;2975;50.956;6.962;2023-06-24T02:18:46;17.90;99.90
5899;DHT22;2975;50.956;6.962;2023-06-24T02:21:15;17.90;99.90
5899;DHT22;2975;50.956;6.962;2023-06-24T02:23:42;17.90;99.90
5899;DHT22;2975;50.956;6.962;2023-06-24T02:26:08;17.80;99.90
5899;DHT22;2975;50.956;6.962;2023-06-24T02:28:35;17.80;99.90
5899;DHT22;2975;50.956;6.962;2023-06-24T02:31:03;17.80;99.90
5899;DHT22;2975;50.956;6.962;2023-06-24T02:33:29;17.80;99.90
5899;DHT22;2975;50.956;6.962;2023-06-24T02:35:55;17.80;99.90
5899;DHT22;2975;50.956;6.962;2023-06-24T02:38:20;17.80;99.90
5899;DHT22;2975;50.956;6.962;2023-06-24T02:40:47;17.80;99.90
5899;DHT22;2975;50.956;6.962;2023-06-24T02:43:13;17.70;99.90
5899;DHT22;2975;50.956;6.962;2023-06-24T02:45:39;17.70;99.90
5899;DHT22;2975;50.956;6.962;2023-06-24T02:48:06;17.70;99.90
5899;DHT22;2975;50.956;6.962;2023-06-24T02:50:34;17.80;99.90
5899;DHT22;2975;50.956;6.962;2023-06-24T02:53:00;17.80;99.90
5899;DHT22;2975;50.956;6.962;2023-06-24T02:55:26;17.80;99.90
5899;DHT22;2975;50.956;6.962;2023-06-24T02:57:53;17.80;99.90
5899;DHT22;2975;50.956;6.962;2023-06-24T03:00:20;17.80;99.90
5899;DHT22;2975;50.956;6.962;2023-06-24T03:02:47;17.80;99.90
5899;DHT22;2975;50.956;6.962;2023-06-24T03:05:14;17.70;99.90
5899;DHT22;2975;50.956;6.962;2023-06-24T03:07:41;17.70;99.90
5899;DHT22;2975;50.956;6.962;2023-06-24T03:10:07;17.80;99.90
5899;DHT22;2975;50.956;6.962;2023-06-24T03:12:34;17.80;99.90
5899;DHT22;2975;50.956;6.962;2023-06-24T03:14:59;17.70;99.90
5899;DHT22;2975;50.956;6.962;2023-06-24T03:17:28;17.80;99.90
5899;DHT22;2975;50.956;6.962;2023-06-24T03:19:54;17.80;99.90
5899;DHT22;2975;50.956;6.962;2023-06-24T03:22:21;17.70;99.90
5899;DHT22;2975;50.956;6.962;2023-06-24T03:24:47;17.70;99.90
5899;DHT22;2975;50.956;6.962;2023-06-24T03:27:12;17.70;99.90
5899;DHT22;2975;50.956;6.962;2023-06-24T03:29:38;17.70;99.90
5899;DHT22;2975;50.956;6.962;2023-06-24T03:32:04;17.70;99.90
5899;DHT22;2975;50.956;6.962;2023-06-24T03:34:29;17.70;99.90
5899;DHT22;2975;50.956;6.962;2023-06-24T03:36:55;17.70;99.90
5899;DHT22;2975;50.956;6.962;2023-06-24T03:39:21;17.70;99.90
5899;DHT22;2975;50.956;6.962;2023-06-24T03:41:46;17.70;99.90
5899;DHT22;2975;50.956;6.962;2023-06-24T03:44:12;17.70;99.90
5899;DHT22;2975;50.956;6.962;2023-06-24T03:46:38;17.80;99.90
5899;DHT22;2975;50.956;6.962;2023-06-24T03:49:04;17.80;99.90
5899;DHT22;2975;50.956;6.962;2023-06-24T03:51:29;17.80;99.90
5899;DHT22;2975;50.956;6.962;2023-06-24T03:53:56;17.90;99.90
5899;DHT22;2975;50.956;6.962;2023-06-24T03:56:22;17.90;99.90
5899;DHT22;2975;50.956;6.962;2023-06-24T03:58:47;18.00;99.90
5899;DHT22;2975;50.956;6.962;2023-06-24T04:01:13;18.00;99.90
5899;DHT22;2975;50.956;6.962;2023-06-24T04:03:38;18.00;99.90
5899;DHT22;2975;50.956;6.962;2023-06-24T04:06:04;18.10;99.90
5899;DHT22;2975;50.956;6.962;2023-06-24T04:08:30;18.10;99.90
5899;DHT22;2975;50.956;6.962;2023-06-24T04:10:58;18.20;99.90
5899;DHT22;2975;50.956;6.962;2023-06-24T04:13:25;18.30;99.90
5899;DHT22;2975;50.956;6.962;2023-06-24T04:15:51;18.40;99.90
5899;DHT22;2975;50.956;6.962;2023-06-24T04:18:19;18.50;99.90
5899;DHT22;2975;50.956;6.962;2023-06-24T04:20:45;18.60;99.90
5899;DHT22;2975;50.956;6.962;2023-06-24T04:23:12;18.70;99.90
5899;DHT22;2975;50.956;6.962;2023-06-24T04:25:40;18.70;99.90
5899;DHT22;2975;50.956;6.962;2023-06-24T04:28:05;18.80;99.90
5899;DHT22;2975;50.956;6.962;2023-06-24T04:30:32;18.80;99.90
5899;DHT22;2975;50.956;6.962;2023-06-24T04:32:57;18.90;99.90
5899;DHT22;2975;50.956;6.962;2023-06-24T04:35:24;19.00;99.90
5899;DHT22;2975;50.956;6.962;2023-06-24T04:37:50;19.00;99.90
5899;DHT22;2975;50.956;6.962;2023-06-24T04:40:17;19.30;99.90
5899;DHT22;2975;50.956;6.962;2023-06-24T04:42:43;19.70;99.90
5899;DHT22;2975;50.956;6.962;2023-06-24T04:45:09;20.20;99.90
5899;DHT22;2975;50.956;6.962;2023-06-24T04:47:34;21.00;99.90
5899;DHT22;2975;50.956;6.962;2023-06-24T04:50:00;22.10;99.90
5899;DHT22;2975;50.956;6.962;2023-06-24T04:52:25;23.20;99.90
5899;DHT22;2975;50.956;6.962;2023-06-24T04:54:51;24.10;99.90
5899;DHT22;2975;50.956;6.962;2023-06-24T04:57:28;24.90;99.40
5899;DHT22;2975;50.956;6.962;2023-06-24T04:59:54;25.60;98.30
5899;DHT22;2975;50.956;6.962;2023-06-24T05:02:19;26.20;96.00
5899;DHT22;2975;50.956;6.962;2023-06-24T05:04:45;26.60;94.60
5899;DHT22;2975;50.956;6.962;2023-06-24T05:07:10;27.20;93.90
5899;DHT22;2975;50.956;6.962;2023-06-24T05:09:36;28.00;93.00
5899;DHT22;2975;50.956;6.962;2023-06-24T05:12:04;29.00;90.80
5899;DHT22;2975;50.956;6.962;2023-06-24T05:14:30;29.80;88.20
5899;DHT22;2975;50.956;6.962;2023-06-24T05:16:55;30.30;86.20
5899;DHT22;2975;50.956;6.962;2023-06-24T05:19:21;31.10;84.40
5899;DHT22;2975;50.956;6.962;2023-06-24T05:21:46;31.80;78.50
5899;DHT22;2975;50.956;6.962;2023-06-24T05:24:12;32.40;77.20
5899;DHT22;2975;50.956;6.962;2023-06-24T05:26:38;32.80;76.10
5899;DHT22;2975;50.956;6.962;2023-06-24T05:29:03;33.30;72.40
5899;DHT22;2975;50.956;6.962;2023-06-24T05:31:29;33.90;69.40
5899;DHT22;2975;50.956;6.962;2023-06-24T05:33:54;34.40;67.50
5899;DHT22;2975;50.956;6.962;2023-06-24T05:36:20;34.70;66.10
5899;DHT22;2975;50.956;6.962;2023-06-24T05:38:45;34.90;64.50
5899;DHT22;2975;50.956;6.962;2023-06-24T05:41:11;35.00;64.10
5899;DHT22;2975;50.956;6.962;2023-06-24T05:43:37;35.30;62.60
5899;DHT22;2975;50.956;6.962;2023-06-24T05:46:03;36.10;60.10
5899;DHT22;2975;50.956;6.962;2023-06-24T05:48:29;36.00;58.70
5899;DHT22;2975;50.956;6.962;2023-06-24T05:50:55;35.40;59.20
5899;DHT22;2975;50.956;6.962;2023-06-24T05:53:20;35.00;59.20
5899;DHT22;2975;50.956;6.962;2023-06-24T05:55:46;34.80;59.60
5899;DHT22;2975;50.956;6.962;2023-06-24T05:58:11;35.70;58.00
5899;DHT22;2975;50.956;6.962;2023-06-24T06:00:37;36.10;57.20
5899;DHT22;2975;50.956;6.962;2023-06-24T06:03:03;36.10;56.60
5899;DHT22;2975;50.956;6.962;2023-06-24T06:05:28;36.20;55.80
5899;DHT22;2975;50.956;6.962;2023-06-24T06:07:54;36.30;56.30
5899;DHT22;2975;50.956;6.962;2023-06-24T06:10:19;36.40;54.60
5899;DHT22;2975;50.956;6.962;2023-06-24T06:12:46;36.10;54.90
5899;DHT22;2975;50.956;6.962;2023-06-24T06:15:12;36.60;54.90
5899;DHT22;2975;50.956;6.962;2023-06-24T06:17:37;37.00;53.80
5899;DHT22;2975;50.956;6.962;2023-06-24T06:20:04;37.40;52.70
5899;DHT22;2975;50.956;6.962;2023-06-24T06:22:30;38.00;51.70
5899;DHT22;2975;50.956;6.962;2023-06-24T06:24:57;38.30;50.70
5899;DHT22;2975;50.956;6.962;2023-06-24T06:27:23;38.60;50.00
5899;DHT22;2975;50.956;6.962;2023-06-24T06:29:48;38.70;49.90
5899;DHT22;2975;50.956;6.962;2023-06-24T06:32:14;38.90;49.20
5899;DHT22;2975;50.956;6.962;2023-06-24T06:34:39;38.90;49.00
5899;DHT22;2975;50.956;6.962;2023-06-24T06:37:05;39.10;48.70
5899;DHT22;2975;50.956;6.962;2023-06-24T06:39:31;39.20;47.80
5899;DHT22;2975;50.956;6.962;2023-06-24T06:41:56;38.70;48.70
5899;DHT22;2975;50.956;6.962;2023-06-24T06:44:22;38.90;48.50
5899;DHT22;2975;50.956;6.962;2023-06-24T06:46:48;38.10;47.50
5899;DHT22;2975;50.956;6.962;2023-06-24T06:49:13;36.60;48.30
5899;DHT22;2975;50.956;6.962;2023-06-24T06:51:39;34.40;51.40
5899;DHT22;2975;50.956;6.962;2023-06-24T06:54:04;32.30;54.70
5899;DHT22;2975;50.956;6.962;2023-06-24T06:56:30;30.20;59.00
5899;DHT22;2975;50.956;6.962;2023-06-24T06:58:55;28.80;62.70
5899;DHT22;2975;50.956;6.962;2023-06-24T07:01:21;27.90;66.60
5899;DHT22;2975;50.956;6.962;2023-06-24T07:03:49;27.40;69.10
5899;DHT22;2975;50.956;6.962;2023-06-24T07:06:14;27.20;70.60
5899;DHT22;2975;50.956;6.962;2023-06-24T07:08:40;27.00;71.60
5899;DHT22;2975;50.956;6.962;2023-06-24T07:11:06;26.50;73.20
5899;DHT22;2975;50.956;6.962;2023-06-24T07:13:31;26.40;74.80
5899;DHT22;2975;50.956;6.962;2023-06-24T07:15:57;26.20;76.10
5899;DHT22;2975;50.956;6.962;2023-06-24T07:18:22;26.20;76.30
5899;DHT22;2975;50.956;6.962;2023-06-24T07:20:48;26.20;76.70
5899;DHT22;2975;50.956;6.962;2023-06-24T07:23:14;26.20;76.30
5899;DHT22;2975;50.956;6.962;2023-06-24T07:25:40;26.20;76.40
5899;DHT22;2975;50.956;6.962;2023-06-24T07:28:05;26.40;76.60
5899;DHT22;2975;50.956;6.962;2023-06-24T07:30:31;26.50;76.30
5899;DHT22;2975;50.956;6.962;2023-06-24T07:32:57;26.70;76.30
5899;DHT22;2975;50.956;6.962;2023-06-24T07:35:22;26.60;74.40
5899;DHT22;2975;50.956;6.962;2023-06-24T07:37:48;26.20;75.00
5899;DHT22;2975;50.956;6.962;2023-06-24T07:40:14;26.10;74.40
5899;DHT22;2975;50.956;6.962;2023-06-24T07:42:41;26.10;74.50
5899;DHT22;2975;50.956;6.962;2023-06-24T07:45:07;25.80;74.30
5899;DHT22;2975;50.956;6.962;2023-06-24T07:47:32;25.70;75.10
5899;DHT22;2975;50.956;6.962;2023-06-24T07:49:58;25.70;75.50
5899;DHT22;2975;50.956;6.962;2023-06-24T07:52:23;25.70;76.10
5899;DHT22;2975;50.956;6.962;2023-06-24T07:54:49;25.60;76.30
5899;DHT22;2975;50.956;6.962;2023-06-24T07:57:15;25.70;76.90
5899;DHT22;2975;50.956;6.962;2023-06-24T07:59:40;25.90;76.00
5899;DHT22;2975;50.956;6.962;2023-06-24T08:02:06;26.00;76.50
5899;DHT22;2975;50.956;6.962;2023-06-24T08:04:32;25.70;75.10
5899;DHT22;2975;50.956;6.962;2023-06-24T08:06:58;25.30;76.30
5899;DHT22;2975;50.956;6.962;2023-06-24T08:09:23;25.20;77.30
5899;DHT22;2975;50.956;6.962;2023-06-24T08:11:49;25.20;77.40
5899;DHT22;2975;50.956;6.962;2023-06-24T08:14:14;25.20;77.00
5899;DHT22;2975;50.956;6.962;2023-06-24T08:16:40;25.30;77.50
5899;DHT22;2975;50.956;6.962;2023-06-24T08:19:06;25.30;77.30
5899;DHT22;2975;50.956;6.962;2023-06-24T08:21:31;25.10;78.30
5899;DHT22;2975;50.956;6.962;2023-06-24T08:23:57;25.20;78.20
5899;DHT22;2975;50.956;6.962;2023-06-24T08:26:23;25.30;78.00
5899;DHT22;2975;50.956;6.962;2023-06-24T08:28:48;25.30;79.00
5899;DHT22;2975;50.956;6.962;2023-06-24T08:31:14;25.60;77.30
5899;DHT22;2975;50.956;6.962;2023-06-24T08:33:44;25.60;77.20
5899;DHT22;2975;50.956;6.962;2023-06-24T08:36:10;25.60;76.60
5899;DHT22;2975;50.956;6.962;2023-06-24T08:38:36;25.70;77.20
5899;DHT22;2975;50.956;6.962;2023-06-24T08:41:02;25.40;79.00
5899;DHT22;2975;50.956;6.962;2023-06-24T08:43:27;25.30;80.90
5899;DHT22;2975;50.956;6.962;2023-06-24T08:45:54;25.10;79.60
5899;DHT22;2975;50.956;6.962;2023-06-24T08:48:20;25.00;81.40
5899;DHT22;2975;50.956;6.962;2023-06-24T08:50:50;25.10;82.30
5899;DHT22;2975;50.956;6.962;2023-06-24T08:53:16;25.20;83.30
5899;DHT22;2975;50.956;6.962;2023-06-24T08:55:45;25.30;87.40
5899;DHT22;2975;50.956;6.962;2023-06-24T08:58:11;25.40;89.30
5899;DHT22;2975;50.956;6.962;2023-06-24T09:00:36;25.50;88.90
5899;DHT22;2975;50.956;6.962;2023-06-24T09:03:02;25.70;89.20
5899;DHT22;2975;50.956;6.962;2023-06-24T09:05:28;25.90;89.00
5899;DHT22;2975;50.956;6.962;2023-06-24T09:07:53;26.10;87.60
5899;DHT22;2975;50.956;6.962;2023-06-24T09:13:01;26.30;89.80
5899;DHT22;2975;50.956;6.962;2023-06-24T09:15:31;26.20;79.20
5899;DHT22;2975;50.956;6.962;2023-06-24T09:17:57;26.30;77.70
5899;DHT22;2975;50.956;6.962;2023-06-24T09:20:23;26.50;75.50
5899;DHT22;2975;50.956;6.962;2023-06-24T09:22:49;26.40;76.10
5899;DHT22;2975;50.956;6.962;2023-06-24T09:25:18;26.20;77.10
5899;DHT22;2975;50.956;6.962;2023-06-24T09:27:48;26.20;76.80
5899;DHT22;2975;50.956;6.962;2023-06-24T09:32:45;26.00;77.10
5899;DHT22;2975;50.956;6.962;2023-06-24T09:35:11;25.90;77.70
5899;DHT22;2975;50.956;6.962;2023-06-24T09:37:37;25.90;77.70
5899;DHT22;2975;50.956;6.962;2023-06-24T09:40:03;26.20;77.70
5899;DHT22;2975;50.956;6.962;2023-06-24T09:42:31;26.10;77.80
5899;DHT22;2975;50.956;6.962;2023-06-24T09:44:57;26.20;79.00
5899;DHT22;2975;50.956;6.962;2023-06-24T09:47:22;26.50;78.60
5899;DHT22;2975;50.956;6.962;2023-06-24T09:49:51;26.80;76.50
5899;DHT22;2975;50.956;6.962;2023-06-24T09:52:18;27.10;74.80
5899;DHT22;2975;50.956;6.962;2023-06-24T09:54:47;27.20;73.60
5899;DHT22;2975;50.956;6.962;2023-06-24T09:57:15;27.30;72.70
5899;DHT22;2975;50.956;6.962;2023-06-24T09:59:43;27.40;72.50
5899;DHT22;2975;50.956;6.962;2023-06-24T10:02:13;27.60;72.50
5899;DHT22;2975;50.956;6.962;2023-06-24T10:04:40;27.50;71.90
5899;DHT22;2975;50.956;6.962;2023-06-24T10:07:06;27.30;71.90
5899;DHT22;2975;50.956;6.962;2023-06-24T10:09:32;27.50;72.10
5899;DHT22;2975;50.956;6.962;2023-06-24T10:11:58;27.60;70.90
5899;DHT22;2975;50.956;6.962;2023-06-24T10:14:23;27.40;71.30
5899;DHT22;2975;50.956;6.962;2023-06-24T10:16:49;27.40;72.00
5899;DHT22;2975;50.956;6.962;2023-06-24T10:19:19;27.50;71.30
5899;DHT22;2975;50.956;6.962;2023-06-24T10:21:51;27.70;71.00
5899;DHT22;2975;50.956;6.962;2023-06-24T10:24:34;27.80;71.10
5899;DHT22;2975;50.956;6.962;2023-06-24T10:27:05;27.70;71.20
5899;DHT22;2975;50.956;6.962;2023-06-24T10:29:37;27.60;69.20
5899;DHT22;2975;50.956;6.962;2023-06-24T10:32:05;27.30;68.40
5899;DHT22;2975;50.956;6.962;2023-06-24T10:37:05;27.20;67.10
5899;DHT22;2975;50.956;6.962;2023-06-24T10:44:55;27.30;67.90
5899;DHT22;2975;50.956;6.962;2023-06-24T10:47:22;27.40;68.10
5899;DHT22;2975;50.956;6.962;2023-06-24T10:49:48;27.60;66.40
5899;DHT22;2975;50.956;6.962;2023-06-24T10:52:14;27.50;67.00
5899;DHT22;2975;50.956;6.962;2023-06-24T10:54:41;27.20;66.90
5899;DHT22;2975;50.956;6.962;2023-06-24T10:57:07;27.00;66.90
5899;DHT22;2975;50.956;6.962;2023-06-24T10:59:46;26.70;68.70
5899;DHT22;2975;50.956;6.962;2023-06-24T11:02:17;26.60;69.40
5899;DHT22;2975;50.956;6.962;2023-06-24T11:05:03;26.60;69.60
5899;DHT22;2975;50.956;6.962;2023-06-24T11:07:34;26.70;68.30
5899;DHT22;2975;50.956;6.962;2023-06-24T11:10:05;26.80;68.60
5899;DHT22;2975;50.956;6.962;2023-06-24T11:12:33;26.80;62.70
5899;DHT22;2975;50.956;6.962;2023-06-24T11:15:04;26.70;57.80
5899;DHT22;2975;50.956;6.962;2023-06-24T11:17:30;26.80;58.40
5899;DHT22;2975;50.956;6.962;2023-06-24T11:19:57;27.00;59.70
5899;DHT22;2975;50.956;6.962;2023-06-24T11:22:24;27.20;59.40
5899;DHT22;2975;50.956;6.962;2023-06-24T11:24:50;27.30;60.70
5899;DHT22;2975;50.956;6.962;2023-06-24T11:27:15;27.30;59.30
5899;DHT22;2975;50.956;6.962;2023-06-24T11:29:41;27.10;59.50
5899;DHT22;2975;50.956;6.962;2023-06-24T11:32:08;27.20;59.90
5899;DHT22;2975;50.956;6.962;2023-06-24T11:34:35;27.30;60.40
5899;DHT22;2975;50.956;6.962;2023-06-24T11:37:17;27.30;61.30
5899;DHT22;2975;50.956;6.962;2023-06-24T11:39:43;27.40;61.70
5899;DHT22;2975;50.956;6.962;2023-06-24T11:42:10;27.50;62.70
5899;DHT22;2975;50.956;6.962;2023-06-24T11:44:40;27.60;61.10
5899;DHT22;2975;50.956;6.962;2023-06-24T11:47:08;27.70;61.80
5899;DHT22;2975;50.956;6.962;2023-06-24T11:49:56;27.80;61.80
5899;DHT22;2975;50.956;6.962;2023-06-24T11:52:43;27.90;64.00
5899;DHT22;2975;50.956;6.962;2023-06-24T11:57:53;28.00;60.60
5899;DHT22;2975;50.956;6.962;2023-06-24T12:00:22;28.00;60.50
5899;DHT22;2975;50.956;6.962;2023-06-24T12:02:50;27.60;61.30
5899;DHT22;2975;50.956;6.962;2023-06-24T12:05:27;27.60;60.50
5899;DHT22;2975;50.956;6.962;2023-06-24T12:07:57;27.60;61.30
5899;DHT22;2975;50.956;6.962;2023-06-24T12:10:23;27.60;62.70
5899;DHT22;2975;50.956;6.962;2023-06-24T12:12:49;27.80;62.70
5899;DHT22;2975;50.956;6.962;2023-06-24T12:15:14;27.80;62.30
5899;DHT22;2975;50.956;6.962;2023-06-24T12:17:40;28.00;62.00
5899;DHT22;2975;50.956;6.962;2023-06-24T12:20:06;28.10;65.40
5899;DHT22;2975;50.956;6.962;2023-06-24T12:22:33;28.10;62.90
5899;DHT22;2975;50.956;6.962;2023-06-24T12:24:58;28.00;60.80
5899;DHT22;2975;50.956;6.962;2023-06-24T12:27:24;28.00;64.70
5899;DHT22;2975;50.956;6.962;2023-06-24T12:29:49;28.00;60.80
5899;DHT22;2975;50.956;6.962;2023-06-24T12:32:15;28.00;62.30
5899;DHT22;2975;50.956;6.962;2023-06-24T12:34:40;28.00;61.90
5899;DHT22;2975;50.956;6.962;2023-06-24T12:37:06;28.10;60.50
5899;DHT22;2975;50.956;6.962;2023-06-24T12:39:32;28.00;60.80
5899;DHT22;2975;50.956;6.962;2023-06-24T12:41:57;27.60;62.50
5899;DHT22;2975;50.956;6.962;2023-06-24T12:44:23;27.40;62.10
5899;DHT22;2975;50.956;6.962;2023-06-24T12:46:48;27.30;62.10
5899;DHT22;2975;50.956;6.962;2023-06-24T12:49:14;27.30;62.80
5899;DHT22;2975;50.956;6.962;2023-06-24T12:51:39;27.20;62.70
5899;DHT22;2975;50.956;6.962;2023-06-24T12:54:05;27.20;64.50
5899;DHT22;2975;50.956;6.962;2023-06-24T12:56:31;27.40;64.60
5899;DHT22;2975;50.956;6.962;2023-06-24T12:58:56;27.50;63.40
5899;DHT22;2975;50.956;6.962;2023-06-24T13:01:22;27.40;64.10
5899;DHT22;2975;50.956;6.962;2023-06-24T13:03:47;27.60;63.50
5899;DHT22;2975;50.956;6.962;2023-06-24T13:06:13;27.80;62.20
5899;DHT22;2975;50.956;6.962;2023-06-24T13:08:39;27.90;61.40
5899;DHT22;2975;50.956;6.962;2023-06-24T13:11:05;27.70;63.20
5899;DHT22;2975;50.956;6.962;2023-06-24T13:13:30;27.70;63.60
5899;DHT22;2975;50.956;6.962;2023-06-24T13:15:56;27.80;63.80
5899;DHT22;2975;50.956;6.962;2023-06-24T13:18:21;27.80;62.90
5899;DHT22;2975;50.956;6.962;2023-06-24T13:20:47;27.80;63.30
5899;DHT22;2975;50.956;6.962;2023-06-24T13:23:13;28.00;64.00
5899;DHT22;2975;50.956;6.962;2023-06-24T13:25:38;28.20;62.00
5899;DHT22;2975;50.956;6.962;2023-06-24T13:28:05;28.10;62.70
5899;DHT22;2975;50.956;6.962;2023-06-24T13:30:31;28.10;62.70
5899;DHT22;2975;50.956;6.962;2023-06-24T13:32:57;28.30;61.30
5899;DHT22;2975;50.956;6.962;2023-06-24T13:35:22;28.30;61.60
5899;DHT22;2975;50.956;6.962;2023-06-24T13:37:48;28.40;62.20
5899;DHT22;2975;50.956;6.962;2023-06-24T13:40:13;28.40;60.60
5899;DHT22;2975;50.956;6.962;2023-06-24T13:42:39;28.10;60.10
5899;DHT22;2975;50.956;6.962;2023-06-24T13:45:05;28.10;61.10
5899;DHT22;2975;50.956;6.962;2023-06-24T13:47:31;28.00;60.40
5899;DHT22;2975;50.956;6.962;2023-06-24T13:49:56;28.10;60.90
5899;DHT22;2975;50.956;6.962;2023-06-24T13:52:22;28.10;61.00
5899;DHT22;2975;50.956;6.962;2023-06-24T13:54:48;28.10;59.90
5899;DHT22;2975;50.956;6.962;2023-06-24T13:57:13;27.90;60.10
5899;DHT22;2975;50.956;6.962;2023-06-24T13:59:41;27.90;60.20
5899;DHT22;2975;50.956;6.962;2023-06-24T14:02:07;27.90;60.00
5899;DHT22;2975;50.956;6.962;2023-06-24T14:04:34;28.00;61.20
5899;DHT22;2975;50.956;6.962;2023-06-24T14:07:00;28.10;60.40
5899;DHT22;2975;50.956;6.962;2023-06-24T14:09:27;28.10;59.70
5899;DHT22;2975;50.956;6.962;2023-06-24T14:11:53;28.20;59.40
5899;DHT22;2975;50.956;6.962;2023-06-24T14:14:21;28.20;58.80
5899;DHT22;2975;50.956;6.962;2023-06-24T14:16:47;28.30;58.20
5899;DHT22;2975;50.956;6.962;2023-06-24T14:19:12;28.20;59.00
5899;DHT22;2975;50.956;6.962;2023-06-24T14:21:38;28.20;59.40
5899;DHT22;2975;50.956;6.962;2023-06-24T14:24:05;28.10;58.70
5899;DHT22;2975;50.956;6.962;2023-06-24T14:26:32;28.10;57.40
5899;DHT22;2975;50.956;6.962;2023-06-24T14:28:57;28.10;57.80
5899;DHT22;2975;50.956;6.962;2023-06-24T14:31:23;28.10;57.60
5899;DHT22;2975;50.956;6.962;2023-06-24T14:33:49;28.00;57.30
5899;DHT22;2975;50.956;6.962;2023-06-24T14:36:14;28.00;56.30
5899;DHT22;2975;50.956;6.962;2023-06-24T14:38:40;28.10;56.80
5899;DHT22;2975;50.956;6.962;2023-06-24T14:41:08;28.00;56.70
5899;DHT22;2975;50.956;6.962;2023-06-24T14:43:34;27.90;57.00
5899;DHT22;2975;50.956;6.962;2023-06-24T14:45:59;27.90;57.10
5899;DHT22;2975;50.956;6.962;2023-06-24T14:48:25;27.90;56.50
5899;DHT22;2975;50.956;6.962;2023-06-24T14:50:51;27.90;56.10
5899;DHT22;2975;50.956;6.962;2023-06-24T14:53:16;27.90;54.80
5899;DHT22;2975;50.956;6.962;2023-06-24T14:55:42;28.00;54.50
5899;DHT22;2975;50.956;6.962;2023-06-24T14:58:07;28.00;53.80
5899;DHT22;2975;50.956;6.962;2023-06-24T15:00:33;28.00;53.70
5899;DHT22;2975;50.956;6.962;2023-06-24T15:02:58;28.00;53.80
5899;DHT22;2975;50.956;6.962;2023-06-24T15:05:24;28.10;53.70
5899;DHT22;2975;50.956;6.962;2023-06-24T15:07:50;28.10;53.00
5899;DHT22;2975;50.956;6.962;2023-06-24T15:10:15;28.20;53.20
5899;DHT22;2975;50.956;6.962;2023-06-24T15:12:41;28.20;53.50
5899;DHT22;2975;50.956;6.962;2023-06-24T15:15:06;28.10;52.80
5899;DHT22;2975;50.956;6.962;2023-06-24T15:17:32;28.10;53.80
5899;DHT22;2975;50.956;6.962;2023-06-24T15:20:00;28.10;52.40
5899;DHT22;2975;50.956;6.962;2023-06-24T15:22:26;28.00;52.50
5899;DHT22;2975;50.956;6.962;2023-06-24T15:24:51;28.00;52.30
5899;DHT22;2975;50.956;6.962;2023-06-24T15:27:17;27.90;52.40
5899;DHT22;2975;50.956;6.962;2023-06-24T15:29:42;28.00;52.70
5899;DHT22;2975;50.956;6.962;2023-06-24T15:32:08;28.00;51.90
5899;DHT22;2975;50.956;6.962;2023-06-24T15:34:34;28.00;52.20
5899;DHT22;2975;50.956;6.962;2023-06-24T15:36:59;28.10;51.60
5899;DHT22;2975;50.956;6.962;2023-06-24T15:39:25;28.00;50.30
5899;DHT22;2975;50.956;6.962;2023-06-24T15:41:50;27.90;50.70
5899;DHT22;2975;50.956;6.962;2023-06-24T15:44:16;27.80;50.50
5899;DHT22;2975;50.956;6.962;2023-06-24T15:46:42;27.80;49.90
5899;DHT22;2975;50.956;6.962;2023-06-24T15:49:09;27.80;50.70
5899;DHT22;2975;50.956;6.962;2023-06-24T15:51:35;27.80;50.60
5899;DHT22;2975;50.956;6.962;2023-06-24T15:54:01;27.90;50.60
5899;DHT22;2975;50.956;6.962;2023-06-24T15:56:26;27.90;50.20
5899;DHT22;2975;50.956;6.962;2023-06-24T15:58:52;27.90;48.60
5899;DHT22;2975;50.956;6.962;2023-06-24T16:01:17;27.80;48.20
5899;DHT22;2975;50.956;6.962;2023-06-24T16:03:43;27.70;48.70
5899;DHT22;2975;50.956;6.962;2023-06-24T16:06:08;27.70;49.50
5899;DHT22;2975;50.956;6.962;2023-06-24T16:08:34;27.90;47.80
5899;DHT22;2975;50.956;6.962;2023-06-24T16:11:00;27.80;48.80
5899;DHT22;2975;50.956;6.962;2023-06-24T16:13:26;27.80;49.00
5899;DHT22;2975;50.956;6.962;2023-06-24T16:15:52;27.80;47.80
5899;DHT22;2975;50.956;6.962;2023-06-24T16:18:17;27.80;48.00
5899;DHT22;2975;50.956;6.962;2023-06-24T16:20:43;27.70;47.20
5899;DHT22;2975;50.956;6.962;2023-06-24T16:23:09;27.70;47.10
5899;DHT22;2975;50.956;6.962;2023-06-24T16:25:34;27.70;47.60
5899;DHT22;2975;50.956;6.962;2023-06-24T16:28:00;27.60;48.50